Terminal Aerodrome Forecast
Issued by NWS

Home | Current Version | Previous Version | Graphics & Text | Print | Product List | Glossary On
Versions: 1 2 3 4 5 6 7 8 9 10 11 12 13 14 15 16 17
612
FTUS43 KGRB 232336
TAFMTW
TAF
KMTW 232336Z 2400/2424 17013G20KT P6SM SCT040 BKN200
     FM240200 18009KT P6SM SCT040 BKN200
     FM240600 19008KT P6SM VCSH BKN035 OVC150
      TEMPO 2408/2411 5SM -TSRA BR BKN015 OVC035CB
     FM241100 19008KT 2SM TSRA BR BKN006 OVC015CB
     FM241500 19012G19KT 5SM HZ VCSH BKN008 OVC015
     FM241900 20013G20KT 6SM HZ SCT015 BKN035
      TEMPO 2419/2421 BKN015=

USA.gov is the U.S. government's official web portal to all federal, state and local government web resources and services.